Time;durP1;ratioP1;P1;durP2;ratioP2;P2;SDS_P1;SDS_P2;PMS_P1;PMS_P2;Temp;Humidity;BMP_temperature;BMP_pressure;BME280_temperature;BME280_humidity;BME280_pressure;Samples;Min_cycle;Max_cycle;Signal;HPM_P1;HPM_P2
2023/12/03 00:00:03;;;;;;;29.35;13.95;;;;;;;3.83;66.29;101281.03;5091065;27;102030;-79
2023/12/03 00:02:29;;;;;;;30.38;13.65;;;;;;;4.01;65.29;101270.56;5095154;27;98887;-77
2023/12/03 00:04:58;;;;;;;32.72;13.27;;;;;;;3.79;65.56;101274.94;5086707;27;96710;-77
2023/12/03 00:07:28;;;;;;;30.17;13.32;;;;;;;3.90;65.72;101280.16;5095177;27;97036;-77
2023/12/03 00:09:56;;;;;;;33.13;14.35;;;;;;;3.80;65.88;101284.53;5097549;27;99386;-79
2023/12/03 00:12:22;;;;;;;30.95;13.73;;;;;;;3.97;65.11;101284.53;5090062;27;98822;-76
2023/12/03 00:14:48;;;;;;;29.02;12.75;;;;;;;3.84;65.42;101288.88;5091875;27;96814;-76
2023/12/03 00:17:15;;;;;;;34.20;14.00;;;;;;;3.96;65.23;101283.66;5090422;27;97128;-76
2023/12/03 00:19:41;;;;;;;28.30;13.32;;;;;;;4.05;64.86;101293.25;5098851;27;99144;-76
2023/12/03 00:22:08;;;;;;;29.25;13.00;;;;;;;3.61;65.86;101291.47;5084109;27;98973;-76
2023/12/03 00:24:35;;;;;;;31.70;13.38;;;;;;;3.44;66.47;101295.78;5090308;27;97248;-76
2023/12/03 00:27:02;;;;;;;27.13;13.02;;;;;;;3.64;65.78;101295.81;5090522;27;96835;-75
2023/12/03 00:29:29;;;;;;;34.38;13.73;;;;;;;3.69;65.78;101298.44;5094155;27;99257;-76
2023/12/03 00:31:55;;;;;;;29.75;13.75;;;;;;;3.68;66.55;101296.69;5095888;27;98873;-76
2023/12/03 00:34:21;;;;;;;25.33;12.35;;;;;;;3.05;68.06;101303.50;5089991;27;96759;-76
2023/12/03 00:36:48;;;;;;;31.20;13.55;;;;;;;3.35;68.14;101300.97;5092216;27;99822;-74
2023/12/03 00:39:14;;;;;;;28.17;12.57;;;;;;;3.40;66.54;101306.25;5093517;27;99233;-74
2023/12/03 00:41:42;;;;;;;28.23;12.60;;;;;;;3.53;66.20;101311.50;5084810;27;99180;-74
2023/12/03 00:44:08;;;;;;;26.77;12.10;;;;;;;3.74;65.59;101312.41;5086087;27;98617;-74
2023/12/03 00:46:34;;;;;;;29.75;12.65;;;;;;;3.74;64.82;101322.88;5084530;27;96817;-75
2023/12/03 00:49:01;;;;;;;23.45;11.15;;;;;;;3.81;64.40;101314.13;5093067;27;99004;-79
2023/12/03 00:51:28;;;;;;;27.55;12.65;;;;;;;4.13;63.73;101320.28;5082335;27;97724;-78
2023/12/03 00:53:54;;;;;;;23.27;11.40;;;;;;;4.11;63.11;101328.97;5086557;27;96779;-78
2023/12/03 00:56:20;;;;;;;25.65;11.35;;;;;;;4.03;62.90;101328.97;5085117;27;96824;-78
2023/12/03 00:58:48;;;;;;;24.48;10.55;;;;;;;3.97;62.94;101324.63;5081483;27;98782;-77
2023/12/03 01:01:14;;;;;;;21.58;10.25;;;;;;;3.83;63.66;101328.09;5091079;27;98697;-78
2023/12/03 01:03:40;;;;;;;22.23;9.90;;;;;;;3.93;62.19;101324.63;5086694;27;96803;-73
2023/12/03 01:06:08;;;;;;;22.17;10.32;;;;;;;3.36;64.06;101339.31;5091732;27;96802;-81
2023/12/03 01:08:34;;;;;;;22.00;10.10;;;;;;;3.64;63.99;101339.38;5092902;27;99252;-80
2023/12/03 01:11:04;;;;;;;23.05;10.57;;;;;;;4.02;62.66;101337.69;5079835;27;102244;-80
2023/12/03 01:13:30;;;;;;;21.55;9.60;;;;;;;3.84;61.91;101346.41;5083668;27;96854;-81
2023/12/03 01:15:58;;;;;;;22.70;10.23;;;;;;;3.80;62.41;101349.88;5087382;27;97971;-80
2023/12/03 01:18:24;;;;;;;19.17;9.52;;;;;;;3.90;61.30;101343.78;5081934;27;98895;-80
2023/12/03 01:20:51;;;;;;;19.08;9.60;;;;;;;3.71;62.02;101348.97;5090669;27;98116;-80
2023/12/03 01:23:17;;;;;;;17.40;8.13;;;;;;;3.81;61.22;101349.00;5090607;27;96830;-80
2023/12/03 01:25:43;;;;;;;16.65;8.45;;;;;;;3.79;61.39;101355.97;5089135;27;97460;-81
2023/12/03 01:28:10;;;;;;;18.23;8.70;;;;;;;3.57;61.48;101356.78;5092406;27;99684;-80
2023/12/03 01:30:36;;;;;;;17.83;8.23;;;;;;;4.03;61.09;101365.59;5086891;27;97737;-81
2023/12/03 01:33:04;;;;;;;18.38;8.63;;;;;;;3.81;60.61;101363.81;5084796;27;96843;-81
2023/12/03 01:35:30;;;;;;;17.92;8.60;;;;;;;3.53;60.92;101369.00;5085645;27;96835;-80
2023/12/03 01:37:56;;;;;;;16.15;8.32;;;;;;;3.88;60.73;101368.16;5089701;27;99429;-81
2023/12/03 01:40:23;;;;;;;16.80;8.15;;;;;;;3.75;60.77;101366.41;5091260;27;97900;-80
2023/12/03 01:42:49;;;;;;;17.08;7.78;;;;;;;4.05;59.94;101382.16;5084233;27;96744;-80
2023/12/03 01:45:16;;;;;;;15.07;7.80;;;;;;;3.86;60.73;101380.41;5087227;27;96963;-81
2023/12/03 01:47:42;;;;;;;15.90;8.70;;;;;;;3.77;60.52;101367.28;5091402;27;98980;-80
2023/12/03 01:50:12;;;;;;;18.15;9.25;;;;;;;3.67;60.82;101381.22;5083921;27;97987;-80
2023/12/03 01:52:40;;;;;;;18.40;8.75;;;;;;;3.58;60.75;101385.53;5091193;27;96788;-80
2023/12/03 01:55:08;;;;;;;15.85;8.20;;;;;;;3.63;60.89;101392.50;5092477;27;97464;-80
2023/12/03 01:57:35;;;;;;;14.57;7.15;;;;;;;3.65;61.02;101393.41;5093776;27;99243;-80
2023/12/03 02:00:02;;;;;;;14.10;7.47;;;;;;;3.77;60.17;101398.66;5086906;27;99307;-80
2023/12/03 02:02:29;;;;;;;14.40;7.32;;;;;;;3.69;60.64;101397.75;5080583;27;97135;-81
2023/12/03 02:04:56;;;;;;;14.40;7.55;;;;;;;3.88;60.93;101395.19;5076654;27;96709;-80
2023/12/03 02:07:24;;;;;;;14.98;7.57;;;;;;;3.73;61.38;101397.78;5081794;27;97838;-81
2023/12/03 02:09:51;;;;;;;16.20;7.95;;;;;;;3.90;60.81;101397.81;5091214;27;98917;-81
2023/12/03 02:12:17;;;;;;;16.48;7.13;;;;;;;3.72;60.51;101398.66;5092357;27;96783;-80
2023/12/03 02:14:43;;;;;;;13.98;7.70;;;;;;;3.73;61.07;101399.53;5092433;27;97609;-80
2023/12/03 02:17:10;;;;;;;16.27;7.75;;;;;;;3.91;60.49;101402.19;5085729;27;98956;-81
2023/12/03 02:19:36;;;;;;;13.38;7.07;;;;;;;3.90;60.83;101400.44;5081047;27;98966;-81
2023/12/03 02:22:03;;;;;;;15.73;7.40;;;;;;;4.18;59.69;101404.84;5089740;27;96794;-80
2023/12/03 02:24:31;;;;;;;13.65;6.85;;;;;;;4.25;59.47;101405.72;5092769;27;96760;-80
2023/12/03 02:26:57;;;;;;;13.27;7.13;;;;;;;3.87;59.74;101403.06;5093233;27;98942;-79
2023/12/03 02:29:23;;;;;;;12.63;6.78;;;;;;;4.08;59.44;101408.31;5092896;27;98985;-79
2023/12/03 02:31:50;;;;;;;14.10;6.45;;;;;;;3.98;59.69;101414.41;5091653;27;96848;-79
2023/12/03 02:34:16;;;;;;;13.85;6.85;;;;;;;3.89;60.04;101422.22;5091143;27;97297;-80
2023/12/03 02:36:43;;;;;;;11.98;6.47;;;;;;;3.91;60.22;101426.59;5090265;27;99628;-80
2023/12/03 02:39:09;;;;;;;12.88;6.32;;;;;;;3.87;59.79;101423.97;5084670;27;98873;-80
2023/12/03 02:41:37;;;;;;;15.80;7.25;;;;;;;3.80;60.28;101428.31;5085727;27;98055;-80
2023/12/03 02:44:03;;;;;;;14.90;7.20;;;;;;;4.07;60.16;101429.25;5092664;27;98381;-80
2023/12/03 02:46:30;;;;;;;16.23;7.05;;;;;;;3.96;59.87;101427.47;5090766;27;99951;-82
2023/12/03 02:48:56;;;;;;;14.75;7.07;;;;;;;4.04;59.37;101429.22;5088220;27;98110;-81
2023/12/03 02:51:22;;;;;;;12.55;7.28;;;;;;;4.00;60.04;101426.59;5090457;27;96803;-79
2023/12/03 02:53:51;;;;;;;13.68;7.18;;;;;;;3.76;60.41;101436.13;5078959;27;97162;-80
2023/12/03 02:56:18;;;;;;;14.52;7.43;;;;;;;4.05;60.46;101437.09;5091056;27;101110;-78
2023/12/03 02:58:45;;;;;;;14.00;7.65;;;;;;;4.11;60.22;101439.72;5084177;27;98792;-78
2023/12/03 03:01:12;;;;;;;15.63;7.07;;;;;;;3.98;60.27;101443.16;5091635;27;96828;-78
2023/12/03 03:03:38;;;;;;;14.23;7.68;;;;;;;3.98;60.86;101443.16;5081341;27;96638;-78
2023/12/03 03:06:04;;;;;;;14.38;6.95;;;;;;;4.13;60.17;101439.72;5081312;27;100246;-79
2023/12/03 03:08:31;;;;;;;17.20;8.10;;;;;;;4.06;60.19;101444.06;5082031;27;101640;-78
2023/12/03 03:10:57;;;;;;;14.77;7.20;;;;;;;3.87;60.04;101439.66;5079397;27;96759;-78
2023/12/03 03:13:23;;;;;;;15.48;7.32;;;;;;;3.87;60.59;101447.50;5086566;27;96737;-79
2023/12/03 03:15:51;;;;;;;12.65;7.05;;;;;;;3.98;61.03;101438.81;5087700;27;98990;-78
2023/12/03 03:18:17;;;;;;;16.30;7.18;;;;;;;3.97;60.49;101439.69;5092320;27;98781;-78
2023/12/03 03:20:44;;;;;;;14.25;7.68;;;;;;;4.08;60.97;101449.28;5089016;27;96937;-78
2023/12/03 03:23:10;;;;;;;16.40;7.88;;;;;;;4.08;61.04;101452.75;5079837;27;96786;-78
2023/12/03 03:25:36;;;;;;;15.65;7.38;;;;;;;3.81;61.57;101450.06;5083989;27;99283;-78
2023/12/03 03:28:03;;;;;;;15.90;8.25;;;;;;;3.75;62.44;101450.94;5086335;27;98765;-78
2023/12/03 03:30:29;;;;;;;13.82;8.00;;;;;;;3.79;62.64;101457.94;5085586;27;96971;-78
2023/12/03 03:32:57;;;;;;;15.77;7.88;;;;;;;3.98;62.64;101461.47;5078781;27;96964;-78
2023/12/03 03:35:23;;;;;;;15.80;7.55;;;;;;;3.88;62.47;101457.06;5076421;27;99089;-79
2023/12/03 03:37:50;;;;;;;15.52;7.40;;;;;;;4.23;61.74;101455.41;5082597;27;98883;-78
2023/12/03 03:40:16;;;;;;;15.13;7.78;;;;;;;4.04;62.23;101456.25;5092003;27;96803;-79
2023/12/03 03:42:43;;;;;;;20.75;9.32;;;;;;;3.93;62.73;101455.38;5078023;27;96997;-78
2023/12/03 03:45:09;;;;;;;18.67;8.30;;;;;;;3.92;62.83;101458.84;5085231;27;98857;-80
2023/12/03 03:47:36;;;;;;;16.63;8.85;;;;;;;4.08;62.36;101454.50;5092925;27;101487;-80
2023/12/03 03:50:05;;;;;;;18.80;8.55;;;;;;;4.07;63.01;101452.78;5088315;27;96656;-81
2023/12/03 03:52:31;;;;;;;20.38;9.23;;;;;;;3.99;63.21;101458.00;5082895;27;96815;-81
2023/12/03 03:54:57;;;;;;;17.27;8.88;;;;;;;3.88;63.85;101457.06;5086149;27;98899;-82
2023/12/03 03:57:24;;;;;;;17.25;8.65;;;;;;;3.94;63.77;101450.13;5080236;27;97701;-83
2023/12/03 03:59:51;;;;;;;19.98;10.63;;;;;;;3.83;64.83;101459.69;5081357;27;98883;-82
2023/12/03 04:02:17;;;;;;;19.58;10.30;;;;;;;4.02;63.98;101457.97;5080452;27;97321;-81
2023/12/03 04:04:44;;;;;;;20.90;9.90;;;;;;;3.85;65.23;101457.06;5087384;27;99220;-84
2023/12/03 04:07:11;;;;;;;18.92;9.90;;;;;;;3.63;65.94;101461.34;5085878;27;99013;-81
2023/12/03 04:09:38;;;;;;;19.38;10.13;;;;;;;3.87;65.71;101457.97;5087672;27;96980;-81
2023/12/03 04:12:05;;;;;;;20.13;9.13;;;;;;;3.95;65.40;101456.22;5084320;27;96778;-79
2023/12/03 04:14:31;;;;;;;19.25;10.30;;;;;;;3.82;65.63;101457.06;5085620;27;101503;-81
2023/12/03 04:16:57;;;;;;;18.70;9.75;;;;;;;4.08;64.87;101464.97;5077219;27;97739;-80
2023/12/03 04:19:24;;;;;;;18.75;10.40;;;;;;;3.99;65.16;101465.84;5087208;27;98599;-80
2023/12/03 04:21:50;;;;;;;22.42;10.82;;;;;;;3.89;65.79;101469.28;5087780;27;96778;-79
2023/12/03 04:24:19;;;;;;;20.38;9.88;;;;;;;4.16;65.07;101474.59;5091296;27;98450;-80
2023/12/03 04:26:46;;;;;;;20.60;10.82;;;;;;;4.04;65.35;101469.34;5082125;27;98859;-81
2023/12/03 04:29:12;;;;;;;20.35;10.35;;;;;;;4.16;65.01;101481.56;5086939;27;96967;-79
2023/12/03 04:31:39;;;;;;;21.45;10.52;;;;;;;3.95;65.75;101479.75;5092689;27;96852;-80
2023/12/03 04:34:07;;;;;;;20.30;10.52;;;;;;;4.09;65.70;101479.78;5091825;27;98889;-79
2023/12/03 04:36:34;;;;;;;20.67;10.88;;;;;;;3.73;67.05;101473.59;5082429;27;98909;-80
2023/12/03 04:39:01;;;;;;;19.10;10.70;;;;;;;3.75;67.24;101474.44;5082610;27;96702;-78
2023/12/03 04:41:36;;;;;;;23.23;11.70;;;;;;;3.59;68.21;101473.53;5089292;27;96987;-79
2023/12/03 04:44:02;;;;;;;20.58;11.00;;;;;;;3.66;68.55;101473.56;5083323;27;99203;-80
2023/12/03 04:46:29;;;;;;;23.20;11.68;;;;;;;4.05;67.17;101481.53;5080967;27;98956;-80
2023/12/03 04:48:55;;;;;;;21.23;11.70;;;;;;;3.83;67.28;101477.09;5084443;27;98552;-80
2023/12/03 04:51:22;;;;;;;23.05;12.75;;;;;;;3.79;68.00;101473.63;5095392;27;96790;-80
2023/12/03 04:53:48;;;;;;;22.67;11.77;;;;;;;4.01;67.53;101485.00;5088842;27;97820;-78
2023/12/03 04:56:14;;;;;;;27.75;12.30;;;;;;;4.19;67.19;101479.84;5089164;27;99202;-78
2023/12/03 04:58:42;;;;;;;38.40;16.83;;;;;;;4.32;66.79;101480.72;5085790;27;97712;-78
2023/12/03 05:01:09;;;;;;;24.65;13.05;;;;;;;4.32;66.32;101483.34;5083140;27;96765;-78
2023/12/03 05:03:35;;;;;;;25.25;13.18;;;;;;;4.19;66.41;101486.81;5078823;27;99798;-79
2023/12/03 05:06:01;;;;;;;22.77;12.68;;;;;;;4.14;66.79;101481.56;5074903;27;98093;-79
2023/12/03 05:08:29;;;;;;;24.95;12.45;;;;;;;4.11;67.12;101491.16;5096619;27;97643;-79
2023/12/03 05:10:56;;;;;;;26.60;12.40;;;;;;;4.16;67.12;101494.63;5094644;27;98347;-80
2023/12/03 05:13:22;;;;;;;24.08;13.13;;;;;;;4.24;66.94;101488.56;5083373;27;98878;-80
2023/12/03 05:15:50;;;;;;;23.92;13.00;;;;;;;3.82;67.52;101499.75;5089343;27;100503;-80
2023/12/03 05:18:16;;;;;;;23.52;12.48;;;;;;;3.75;68.04;101492.75;5097142;27;96703;-81
2023/12/03 05:20:44;;;;;;;26.30;13.45;;;;;;;3.90;68.13;101505.03;5086328;27;97135;-79
2023/12/03 05:23:12;;;;;;;24.30;13.13;;;;;;;3.97;67.96;101509.41;5090598;27;99067;-80
2023/12/03 05:25:38;;;;;;;28.80;14.63;;;;;;;3.91;68.85;101510.25;5094057;27;99194;-79
2023/12/03 05:28:04;;;;;;;26.80;13.63;;;;;;;3.90;68.81;101508.50;5090410;27;97049;-79
2023/12/03 05:30:31;;;;;;;25.13;13.63;;;;;;;3.85;69.17;101510.25;5081735;27;96944;-79
2023/12/03 05:32:58;;;;;;;38.38;17.75;;;;;;;4.01;68.68;101504.19;5091378;27;98993;-78
2023/12/03 05:35:25;;;;;;;27.27;13.55;;;;;;;4.10;68.50;101516.44;5085628;27;99398;-79
2023/12/03 05:37:51;;;;;;;24.88;12.07;;;;;;;3.90;68.94;101515.47;5094926;27;96793;-78
2023/12/03 05:40:18;;;;;;;22.98;12.65;;;;;;;4.01;68.83;101516.38;5092117;27;98246;-78
2023/12/03 05:42:44;;;;;;;26.60;14.48;;;;;;;3.89;69.13;101524.19;5079529;27;99404;-80
2023/12/03 05:45:11;;;;;;;25.70;13.35;;;;;;;3.87;68.78;101523.31;5088678;27;98834;-80
2023/12/03 05:47:37;;;;;;;26.30;13.25;;;;;;;3.78;69.52;101533.72;5084950;27;97645;-78
2023/12/03 05:50:07;;;;;;;26.42;13.40;;;;;;;4.03;68.32;101526.84;5092262;27;96894;-78
2023/12/03 05:52:33;;;;;;;24.27;13.45;;;;;;;3.87;68.15;101533.78;5081330;27;98975;-79
2023/12/03 05:54:59;;;;;;;25.35;14.18;;;;;;;3.83;68.95;101542.47;5088964;27;99237;-79
2023/12/03 05:57:26;;;;;;;23.42;12.57;;;;;;;3.82;68.46;101538.97;5083062;27;97154;-79
2023/12/03 05:59:53;;;;;;;26.52;14.15;;;;;;;3.72;68.59;101544.16;5088176;27;97006;-79
2023/12/03 06:02:20;;;;;;;26.50;13.82;;;;;;;3.86;68.61;101553.81;5078739;27;99235;-79
2023/12/03 06:04:46;;;;;;;24.90;13.20;;;;;;;3.95;67.96;101547.75;5086919;27;101509;-80
2023/12/03 06:07:14;;;;;;;24.65;12.93;;;;;;;4.07;67.25;101560.88;5079702;27;97091;-79
2023/12/03 06:09:41;;;;;;;24.23;13.93;;;;;;;4.16;67.20;101549.56;5090390;27;96771;-80
2023/12/03 06:12:07;;;;;;;25.48;13.88;;;;;;;4.04;67.36;101550.41;5086764;27;99073;-79
2023/12/03 06:14:34;;;;;;;25.58;13.70;;;;;;;4.32;65.77;101556.63;5082913;27;98952;-79
2023/12/03 06:17:01;;;;;;;25.17;13.57;;;;;;;4.10;65.55;101552.16;5084421;27;96830;-80
2023/12/03 06:19:27;;;;;;;23.23;13.77;;;;;;;4.25;64.77;101550.50;5081211;27;97198;-79
2023/12/03 06:21:54;;;;;;;23.73;12.55;;;;;;;4.30;64.66;101551.38;5083394;27;99001;-79
2023/12/03 06:24:21;;;;;;;24.20;13.60;;;;;;;4.33;64.75;101551.34;5084450;27;98807;-78
2023/12/03 06:26:48;;;;;;;23.98;13.00;;;;;;;4.17;64.91;101544.34;5087405;27;96942;-79
2023/12/03 06:29:15;;;;;;;21.45;11.30;;;;;;;3.71;65.75;101552.88;5092543;27;97837;-82
2023/12/03 06:31:41;;;;;;;24.45;13.10;;;;;;;4.03;65.60;101560.84;5087900;27;101607;-82
2023/12/03 06:34:07;;;;;;;27.02;14.02;;;;;;;3.89;65.84;101556.44;5085732;27;99121;-80
2023/12/03 06:36:34;;;;;;;25.42;13.05;;;;;;;4.20;64.76;101564.44;5081946;27;98519;-80
2023/12/03 06:39:00;;;;;;;30.48;15.98;;;;;;;3.88;65.63;101562.53;5086990;27;96807;-78
2023/12/03 06:41:28;;;;;;;24.02;13.05;;;;;;;3.84;65.85;101563.41;5083257;27;99748;-78
2023/12/03 06:43:54;;;;;;;26.20;13.73;;;;;;;3.77;66.05;101566.84;5087109;27;100094;-78
2023/12/03 06:46:21;;;;;;;25.85;13.57;;;;;;;4.09;65.42;101580.06;5089344;27;97034;-79
2023/12/03 06:48:48;;;;;;;25.23;13.23;;;;;;;3.76;65.36;101572.94;5078419;27;97149;-80
2023/12/03 06:51:14;;;;;;;25.42;14.05;;;;;;;3.85;65.71;101577.34;5083538;27;98850;-80
2023/12/03 06:53:40;;;;;;;25.42;13.50;;;;;;;3.78;66.14;101579.06;5075874;27;103280;-78
2023/12/03 06:56:09;;;;;;;24.20;13.32;;;;;;;3.77;65.65;101585.13;5082190;27;96732;-79
2023/12/03 06:58:37;;;;;;;27.20;13.88;;;;;;;4.01;65.97;101590.47;5084736;27;96726;-82
2023/12/03 07:01:04;;;;;;;22.95;12.25;;;;;;;3.63;65.49;101594.63;5082509;27;99316;-82
2023/12/03 07:03:30;;;;;;;27.90;14.07;;;;;;;3.78;65.59;101605.19;5081963;27;98791;-83
2023/12/03 07:05:59;;;;;;;33.00;15.60;;;;;;;3.69;65.81;101597.28;5075974;27;97331;-81
2023/12/03 07:08:25;;;;;;;24.52;12.82;;;;;;;3.65;66.09;101605.09;5082488;27;98678;-84
2023/12/03 07:10:52;;;;;;;25.58;13.38;;;;;;;3.53;66.50;101608.53;5081516;27;101988;-82
2023/12/03 07:13:18;;;;;;;26.27;12.90;;;;;;;3.65;66.31;101615.56;5088010;27;98968;-82
2023/12/03 07:15:46;;;;;;;25.75;13.63;;;;;;;3.72;65.37;101613.00;5083046;27;96773;-82
2023/12/03 07:18:16;;;;;;;24.80;13.90;;;;;;;3.88;65.47;101627.03;5078033;27;96787;-81
2023/12/03 07:20:42;;;;;;;28.35;14.43;;;;;;;3.89;65.30;101626.16;5080851;27;97995;-82
2023/12/03 07:23:09;;;;;;;24.30;13.85;;;;;;;3.79;65.39;101621.75;5092354;27;101204;-82
2023/12/03 07:25:36;;;;;;;25.08;13.82;;;;;;;4.07;64.92;101630.63;5084519;27;96847;-82
2023/12/03 07:28:02;;;;;;;27.60;15.50;;;;;;;3.73;65.61;101625.22;5082547;27;97756;-81
2023/12/03 07:30:29;;;;;;;28.70;15.40;;;;;;;3.88;65.43;101629.63;5082894;27;97847;-82
2023/12/03 07:32:56;;;;;;;31.13;15.30;;;;;;;4.12;64.97;101627.16;5082550;27;100534;-80
2023/12/03 07:35:23;;;;;;;29.73;14.75;;;;;;;4.10;64.48;101628.91;5089123;27;98509;-82
2023/12/03 07:37:49;;;;;;;29.63;15.57;;;;;;;4.20;64.43;101638.53;5081996;27;97068;-81
2023/12/03 07:40:16;;;;;;;27.40;14.48;;;;;;;4.23;63.70;101638.56;5086994;27;98061;-81
2023/12/03 07:42:42;;;;;;;28.58;14.85;;;;;;;4.29;63.55;101635.09;5079309;27;98809;-82
2023/12/03 07:45:09;;;;;;;32.67;16.52;;;;;;;4.22;63.77;101642.03;5084584;27;96806;-78
2023/12/03 07:47:36;;;;;;;28.98;14.18;;;;;;;3.92;63.80;101642.75;5086998;27;96961;-80
2023/12/03 07:50:04;;;;;;;33.22;16.25;;;;;;;3.74;64.66;101653.06;5082504;27;99260;-80
2023/12/03 07:52:31;;;;;;;25.95;13.90;;;;;;;4.00;64.56;101648.88;5084691;27;97642;-80
2023/12/03 07:54:57;;;;;;;27.85;14.23;;;;;;;3.93;64.57;101656.72;5086036;27;98707;-80
2023/12/03 07:57:23;;;;;;;27.58;14.20;;;;;;;3.79;64.17;101650.50;5088971;27;97453;-80
2023/12/03 07:59:50;;;;;;;23.85;13.13;;;;;;;3.39;65.78;101649.34;5096755;27;97775;-81
2023/12/03 08:02:16;;;;;;;26.00;13.07;;;;;;;3.20;66.20;101656.16;5083494;27;99102;-78
2023/12/03 08:04:43;;;;;;;25.13;13.65;;;;;;;3.47;65.62;101650.28;5083146;27;96790;-78
2023/12/03 08:07:11;;;;;;;23.40;13.25;;;;;;;3.64;65.07;101655.63;5076043;27;101278;-81
2023/12/03 08:09:37;;;;;;;23.05;12.35;;;;;;;3.73;64.24;101658.31;5086591;27;99275;-82
2023/12/03 08:12:04;;;;;;;24.45;12.90;;;;;;;3.69;64.18;101659.13;5092938;27;99060;-80
2023/12/03 08:14:30;;;;;;;24.85;12.68;;;;;;;3.89;63.58;101658.41;5089264;27;96672;-80
2023/12/03 08:16:57;;;;;;;23.77;12.95;;;;;;;3.87;63.62;101654.91;5085649;27;96766;-80
2023/12/03 08:19:23;;;;;;;23.00;12.65;;;;;;;4.05;63.02;101658.50;5087470;27;99183;-82
2023/12/03 08:21:49;;;;;;;21.33;11.77;;;;;;;3.85;61.80;101668.84;5082333;27;99225;-83
2023/12/03 08:24:17;;;;;;;24.58;11.45;;;;;;;3.79;62.79;101677.53;5091753;27;97990;-81
2023/12/03 08:26:45;;;;;;;22.23;11.90;;;;;;;3.85;62.51;101671.47;5088076;27;97063;-81
2023/12/03 08:29:12;;;;;;;21.67;12.23;;;;;;;3.76;62.75;101677.50;5083618;27;100662;-81
2023/12/03 08:31:39;;;;;;;24.42;13.20;;;;;;;3.53;63.06;101664.28;5085411;27;99470;-82
2023/12/03 08:34:05;;;;;;;19.75;11.95;;;;;;;3.84;62.85;101674.94;5087279;27;97589;-82
2023/12/03 08:36:32;;;;;;;25.15;13.68;;;;;;;3.92;62.69;101674.13;5083843;27;100472;-81
2023/12/03 08:39:01;;;;;;;21.35;12.07;;;;;;;3.55;63.19;101677.31;5087135;27;98199;-83
2023/12/03 08:41:29;;;;;;;20.67;11.35;;;;;;;3.30;63.51;101681.47;5084705;27;100852;-83
2023/12/03 08:43:55;;;;;;;21.92;11.25;;;;;;;3.43;63.60;101677.22;5081306;27;97222;-81
2023/12/03 08:46:24;;;;;;;20.55;11.63;;;;;;;2.90;64.90;101695.88;5083732;27;96898;-82
2023/12/03 08:48:50;;;;;;;21.20;11.48;;;;;;;3.41;63.78;101685.09;5087087;27;99235;-82
2023/12/03 08:51:17;;;;;;;19.85;11.15;;;;;;;3.24;63.71;101688.38;5093050;27;99335;-81
2023/12/03 08:53:43;;;;;;;21.98;10.65;;;;;;;3.27;63.87;101691.91;5088419;27;99613;-82
2023/12/03 08:56:12;;;;;;;19.45;11.13;;;;;;;3.44;64.12;101690.31;5087980;27;96786;-82
2023/12/03 08:58:39;;;;;;;23.10;11.60;;;;;;;3.52;63.61;101691.25;5087533;27;98398;-81
2023/12/03 09:01:06;;;;;;;20.35;11.43;;;;;;;3.39;63.37;101701.59;5083938;27;100874;-82
2023/12/03 09:03:33;;;;;;;20.38;11.32;;;;;;;3.58;62.93;101707.00;5088045;27;96813;-81
2023/12/03 09:05:59;;;;;;;25.90;12.43;;;;;;;3.80;62.22;101705.44;5085395;27;97914;-80
2023/12/03 09:08:25;;;;;;;22.45;11.88;;;;;;;3.60;62.94;101707.91;5084483;27;101335;-79
2023/12/03 09:10:52;;;;;;;23.30;13.02;;;;;;;3.68;63.26;101717.50;5091303;27;98772;-79
2023/12/03 09:13:19;;;;;;;22.85;11.18;;;;;;;3.59;63.42;101708.75;5090128;27;97023;-80
2023/12/03 09:15:47;;;;;;;25.02;12.50;;;;;;;4.02;61.79;101716.91;5093147;27;97512;-81
2023/12/03 09:18:13;;;;;;;24.92;12.43;;;;;;;4.35;61.21;101711.88;5082619;27;98236;-79
2023/12/03 09:20:39;;;;;;;21.73;12.10;;;;;;;4.08;60.66;101719.53;5088997;27;99168;-79
2023/12/03 09:23:06;;;;;;;19.48;10.90;;;;;;;3.77;61.23;101708.00;5083280;27;98295;-79
2023/12/03 09:25:32;;;;;;;19.30;10.95;;;;;;;3.73;61.31;101723.66;5080505;27;96920;-82
2023/12/03 09:27:59;;;;;;;21.73;11.82;;;;;;;3.39;63.11;101715.53;5089058;27;99202;-81
2023/12/03 09:30:26;;;;;;;18.95;10.82;;;;;;;3.45;62.85;101717.31;5092492;27;98869;-80
2023/12/03 09:32:53;;;;;;;22.38;12.18;;;;;;;3.74;62.49;101726.28;5093286;27;96868;-79
2023/12/03 09:35:20;;;;;;;21.35;12.25;;;;;;;3.64;62.71;101728.81;5079818;27;96862;-80
2023/12/03 09:37:47;;;;;;;20.33;11.35;;;;;;;3.83;61.85;101730.72;5091201;27;99030;-80
2023/12/03 09:40:13;;;;;;;20.58;11.00;;;;;;;3.56;62.42;101727.00;5079804;27;98848;-80
2023/12/03 09:42:46;;;;;;;19.60;10.88;;;;;;;3.51;63.35;101723.47;5079825;27;97850;-78
2023/12/03 09:45:16;;;;;;;18.42;10.60;;;;;;;3.20;63.07;101734.50;5089999;27;99788;-76
2023/12/03 09:47:49;;;;;;;15.23;8.70;;;;;;;3.28;63.18;101729.38;5079414;27;99481;-75
2023/12/03 09:50:17;;;;;;;20.48;10.43;;;;;;;3.16;63.14;101737.94;5078191;27;96827;-76
2023/12/03 09:52:47;;;;;;;19.98;10.80;;;;;;;3.20;63.63;101737.13;5078284;27;96868;-76
2023/12/03 09:55:15;;;;;;;20.17;10.68;;;;;;;3.12;63.85;101747.47;5086467;27;100436;-70
2023/12/03 09:57:44;;;;;;;21.30;10.68;;;;;;;3.28;63.67;101740.69;5088243;27;97555;-76
2023/12/03 10:00:11;;;;;;;21.70;10.98;;;;;;;3.38;63.28;101739.91;5076719;27;98773;-76
2023/12/03 10:02:38;;;;;;;20.95;11.88;;;;;;;3.56;62.34;101740.06;5081578;27;96820;-77
2023/12/03 10:05:06;;;;;;;18.05;10.38;;;;;;;3.67;62.21;101726.25;5073959;27;96814;-77
2023/12/03 10:07:33;;;;;;;17.63;9.80;;;;;;;3.37;62.57;101740.75;5080582;27;99139;-77
2023/12/03 10:10:04;;;;;;;18.02;9.07;;;;;;;3.29;62.49;101745.03;5085389;27;101708;-76
2023/12/03 10:12:40;;;;;;;15.13;8.48;;;;;;;3.51;62.21;101740.91;5084210;27;98433;-75
2023/12/03 10:15:08;;;;;;;15.23;9.13;;;;;;;3.66;61.38;101740.16;5081955;27;98093;-77
2023/12/03 10:17:35;;;;;;;15.85;8.90;;;;;;;3.57;62.06;101746.19;5086697;27;99794;-77
2023/12/03 10:20:26;;;;;;;17.40;9.50;;;;;;;3.65;61.20;101749.75;5078696;27;99149;-76
2023/12/03 10:22:57;;;;;;;16.25;9.63;;;;;;;3.76;61.38;101737.63;5088621;27;96763;-76
2023/12/03 10:25:31;;;;;;;16.02;9.38;;;;;;;3.59;61.20;101736.63;5080437;27;96859;-76
2023/12/03 10:27:58;;;;;;;16.55;9.40;;;;;;;3.91;60.95;101736.88;5087800;27;99534;-75
2023/12/03 10:30:25;;;;;;;19.55;10.27;;;;;;;3.84;60.76;101735.06;5083929;27;97680;-75
2023/12/03 10:32:50;;;;;;;15.82;9.88;;;;;;;3.99;59.62;101729.97;5082841;27;97358;-76
2023/12/03 10:35:19;;;;;;;15.57;8.77;;;;;;;3.87;60.35;101735.13;5084203;27;97250;-75
2023/12/03 10:37:46;;;;;;;16.80;9.40;;;;;;;3.66;61.04;101737.56;5088228;27;99363;-77
2023/12/03 10:40:14;;;;;;;15.82;9.20;;;;;;;4.11;59.75;101739.63;5079712;27;98213;-76
2023/12/03 10:42:41;;;;;;;17.20;8.90;;;;;;;4.40;59.00;101743.28;5086705;27;98524;-77
2023/12/03 10:45:09;;;;;;;16.48;9.07;;;;;;;4.33;58.86;101746.75;5085472;27;98157;-77
2023/12/03 10:47:38;;;;;;;17.35;10.05;;;;;;;4.24;59.06;101744.94;5078035;27;99266;-76
2023/12/03 10:50:06;;;;;;;17.20;10.40;;;;;;;4.41;58.86;101740.69;5087290;27;98436;-77
2023/12/03 10:52:35;;;;;;;18.38;10.13;;;;;;;4.37;58.43;101738.03;5089573;27;96798;-77
2023/12/03 10:55:02;;;;;;;17.40;9.55;;;;;;;4.16;58.94;101741.41;5087031;27;97782;-76
2023/12/03 10:57:35;;;;;;;16.27;9.88;;;;;;;3.85;59.93;101749.91;5087487;27;98873;-78
2023/12/03 11:00:09;;;;;;;16.88;10.18;;;;;;;4.00;60.14;101747.41;5083408;27;97757;-76
2023/12/03 11:02:40;;;;;;;19.00;9.50;;;;;;;3.98;60.31;101752.63;5081319;27;96698;-76
2023/12/03 11:05:09;;;;;;;15.82;9.57;;;;;;;4.09;59.57;101754.44;5075030;27;96778;-76
2023/12/03 11:07:38;;;;;;;17.90;9.75;;;;;;;3.83;60.32;101760.34;5084279;27;99343;-75
2023/12/03 11:10:06;;;;;;;17.08;9.05;;;;;;;3.47;61.04;101757.41;5089683;27;98669;-75
2023/12/03 11:12:34;;;;;;;14.88;9.02;;;;;;;3.56;60.98;101766.22;5085782;27;97126;-76
2023/12/03 11:15:01;;;;;;;16.70;9.77;;;;;;;3.70;61.49;101760.22;5087287;27;97477;-75
2023/12/03 11:17:33;;;;;;;14.85;8.13;;;;;;;3.41;61.38;101765.19;5076210;27;97607;-77